Time;durP1;ratioP1;P1;durP2;ratioP2;P2;SDS_P1;SDS_P2;PMS_P1;PMS_P2;Temp;Humidity;BMP_temperature;BMP_pressure;BME280_temperature;BME280_humidity;BME280_pressure;Samples;Min_cycle;Max_cycle;Signal;HPM_P1;HPM_P2
2022/08/09 00:01:42;;;;;;;27.13;14.73;;;;;;;19.06;98.20;95131.08;1599078;89;21011;-50
2022/08/09 00:04:09;;;;;;;22.52;13.58;;;;;;;19.02;98.36;95136.09;1597766;89;21018;-50
2022/08/09 00:06:39;;;;;;;19.98;12.70;;;;;;;18.97;98.57;95133.27;1610182;89;21491;-50
2022/08/09 00:09:08;;;;;;;18.07;12.23;;;;;;;18.92;98.78;95134.73;1584420;89;21192;-49
2022/08/09 00:11:37;;;;;;;18.40;12.33;;;;;;;18.85;99.03;95119.06;1586520;89;21311;-49
2022/08/09 00:14:05;;;;;;;22.35;12.98;;;;;;;18.79;99.41;95129.41;1593478;89;21097;-51
2022/08/09 00:16:32;;;;;;;19.85;13.93;;;;;;;18.78;100.00;95125.83;1597224;89;21178;-51
2022/08/09 00:19:00;;;;;;;20.23;14.07;;;;;;;18.81;100.00;95129.03;1587043;89;21021;-50
2022/08/09 00:21:28;;;;;;;21.55;13.88;;;;;;;18.87;100.00;95124.91;1586354;89;21482;-50
2022/08/09 00:23:57;;;;;;;18.37;12.05;;;;;;;18.92;100.00;95129.16;1588109;88;21233;-50
2022/08/09 00:26:26;;;;;;;24.55;12.60;;;;;;;18.96;100.00;95134.49;1602003;89;21521;-50
2022/08/09 00:28:54;;;;;;;24.63;12.95;;;;;;;18.95;100.00;95129.56;1567016;89;21576;-49
2022/08/09 00:31:22;;;;;;;21.27;13.40;;;;;;;18.93;100.00;95129.30;1599090;89;21618;-50
2022/08/09 00:33:50;;;;;;;17.75;12.80;;;;;;;18.94;100.00;95128.03;1602660;89;21014;-52
2022/08/09 00:36:19;;;;;;;18.85;11.63;;;;;;;18.94;100.00;95132.22;1588042;89;21321;-50
2022/08/09 00:38:47;;;;;;;18.40;11.48;;;;;;;18.92;100.00;95125.59;1592192;89;21068;-49
2022/08/09 00:41:19;;;;;;;19.05;11.53;;;;;;;18.87;100.00;95127.05;1582978;89;21531;-49
2022/08/09 00:43:45;;;;;;;16.17;11.70;;;;;;;18.81;100.00;95124.84;1597516;88;21498;-49
2022/08/09 00:46:14;;;;;;;18.45;13.05;;;;;;;18.76;100.00;95129.75;1606732;89;21150;-50
2022/08/09 00:48:41;;;;;;;19.75;14.20;;;;;;;18.75;100.00;95122.64;1563017;89;21348;-51
2022/08/09 00:51:09;;;;;;;19.87;13.70;;;;;;;18.79;100.00;95126.61;1602791;89;20988;-50
2022/08/09 00:53:37;;;;;;;22.32;11.80;;;;;;;18.84;100.00;95126.65;1600382;89;21054;-50
2022/08/09 00:56:06;;;;;;;14.65;10.50;;;;;;;18.88;100.00;95128.62;1598417;89;21608;-50
2022/08/09 00:58:34;;;;;;;12.98;10.63;;;;;;;18.89;100.00;95127.97;1606563;89;21042;-50
2022/08/09 01:01:12;;;;;;;18.98;10.88;;;;;;;18.89;100.00;95134.33;1606436;89;21233;-49
2022/08/09 01:03:47;;;;;;;15.23;11.20;;;;;;;18.88;100.00;95134.19;1583526;89;21602;-49
2022/08/09 01:06:32;;;;;;;14.10;10.75;;;;;;;18.88;100.00;95130.63;1598183;89;21011;-48
2022/08/09 01:09:43;;;;;;;13.62;9.55;;;;;;;18.88;100.00;95127.83;1597332;88;21005;-51
2022/08/09 01:12:44;;;;;;;12.43;9.00;;;;;;;18.92;100.00;95129.16;1582519;90;21305;-51
2022/08/09 01:15:17;;;;;;;13.03;10.58;;;;;;;18.92;100.00;95130.55;1605914;89;21590;-50
2022/08/09 01:18:06;;;;;;;15.38;10.38;;;;;;;18.94;100.00;95133.61;1590714;89;21052;-49
2022/08/09 01:21:00;;;;;;;16.20;10.60;;;;;;;18.96;100.00;95133.10;1597166;89;21555;-50
2022/08/09 01:24:02;;;;;;;18.30;9.95;;;;;;;18.96;100.00;95132.48;1597826;89;21060;-50
2022/08/09 01:26:44;;;;;;;11.33;8.90;;;;;;;18.97;100.00;95122.86;1600458;89;21034;-50
2022/08/09 01:29:12;;;;;;;15.00;10.57;;;;;;;18.95;99.72;95124.60;1595380;89;21913;-50
2022/08/09 01:31:41;;;;;;;15.00;10.00;;;;;;;18.94;100.00;95122.45;1591904;89;21002;-49
2022/08/09 01:34:11;;;;;;;14.95;10.60;;;;;;;18.96;99.77;95125.52;1593670;89;21466;-49
2022/08/09 01:36:38;;;;;;;18.65;11.10;;;;;;;18.94;99.77;95123.07;1583979;89;21137;-49
2022/08/09 01:39:06;;;;;;;16.30;10.60;;;;;;;18.96;99.59;95118.55;1581265;88;21033;-49
2022/08/09 01:41:35;;;;;;;19.65;11.83;;;;;;;18.99;99.54;95125.92;1589507;89;21288;-51
2022/08/09 01:44:04;;;;;;;15.50;11.63;;;;;;;19.04;99.50;95125.20;1568049;89;21142;-51
2022/08/09 01:46:41;;;;;;;17.17;11.08;;;;;;;19.07;98.84;95128.42;1596566;88;20996;-49
2022/08/09 01:49:17;;;;;;;14.65;10.40;;;;;;;19.04;98.59;95133.56;1588432;88;21577;-50
2022/08/09 01:51:52;;;;;;;11.55;9.48;;;;;;;19.03;98.30;95124.31;1584212;89;21006;-50
2022/08/09 01:54:26;;;;;;;15.00;11.15;;;;;;;18.99;98.33;95124.53;1585043;89;21276;-50
2022/08/09 01:56:53;;;;;;;16.17;11.20;;;;;;;18.98;98.79;95121.60;1592736;87;21454;-50
2022/08/09 01:59:21;;;;;;;17.45;11.53;;;;;;;19.00;98.86;95126.05;1591096;89;21562;-50
2022/08/09 02:01:52;;;;;;;17.27;11.10;;;;;;;19.03;98.68;95125.70;1560220;89;21014;-49
2022/08/09 02:04:21;;;;;;;13.83;10.85;;;;;;;19.01;98.52;95122.01;1594231;89;21487;-49
2022/08/09 02:09:41;;;;;;;15.15;10.98;;;;;;;19.06;98.79;95137.27;1576272;89;21003;-49
2022/08/09 02:12:11;;;;;;;18.32;10.38;;;;;;;19.04;98.75;95129.39;1594800;89;21041;-51
2022/08/09 02:14:39;;;;;;;13.88;10.43;;;;;;;19.07;98.91;95129.81;1585813;88;21065;-52
2022/08/09 02:17:07;;;;;;;13.48;9.05;;;;;;;19.07;98.60;95128.42;1587943;89;21000;-49
2022/08/09 02:19:35;;;;;;;11.68;9.38;;;;;;;19.07;98.71;95131.21;1605764;89;21130;-49
2022/08/09 02:22:11;;;;;;;13.38;9.53;;;;;;;19.09;98.53;95134.89;1598634;89;21078;-49
2022/08/09 02:24:39;;;;;;;11.35;8.48;;;;;;;19.07;98.15;95135.40;1596961;89;21611;-49
2022/08/09 02:27:07;;;;;;;14.58;9.50;;;;;;;19.04;98.12;95133.56;1599842;89;21065;-49
2022/08/09 02:29:40;;;;;;;15.38;9.23;;;;;;;19.02;97.88;95129.76;1569556;90;20994;-50
2022/08/09 02:32:10;;;;;;;10.82;9.05;;;;;;;19.00;97.84;95133.03;1584993;87;21136;-50
2022/08/09 02:34:38;;;;;;;13.58;9.90;;;;;;;18.99;97.84;95129.35;1585665;89;21432;-50
2022/08/09 02:37:09;;;;;;;12.82;9.20;;;;;;;19.00;98.73;95128.84;1589722;89;21223;-50
2022/08/09 02:39:41;;;;;;;16.42;8.83;;;;;;;19.05;99.01;95132.31;1605440;89;21049;-50
2022/08/09 02:42:15;;;;;;;13.30;9.38;;;;;;;19.10;98.50;95130.84;1586543;88;21526;-49
2022/08/09 02:44:48;;;;;;;12.60;8.23;;;;;;;19.10;97.88;95135.80;1581582;89;21360;-49
2022/08/09 02:47:18;;;;;;;10.75;9.40;;;;;;;19.08;97.69;95131.34;1589440;89;21054;-51
2022/08/09 02:49:53;;;;;;;14.73;9.53;;;;;;;19.06;97.79;95132.47;1587623;89;21043;-50
2022/08/09 02:52:23;;;;;;;10.98;8.80;;;;;;;18.99;97.81;95130.10;1580855;89;21046;-50
2022/08/09 02:54:51;;;;;;;12.35;9.10;;;;;;;18.96;98.30;95137.28;1606169;89;21114;-51
2022/08/09 02:57:19;;;;;;;13.05;8.18;;;;;;;18.94;98.72;95139.19;1599988;89;21183;-49
2022/08/09 02:59:47;;;;;;;13.70;9.85;;;;;;;18.95;99.37;95135.14;1568920;89;21102;-50
2022/08/09 03:02:16;;;;;;;10.00;8.83;;;;;;;19.03;100.00;95139.66;1594296;89;21547;-50
2022/08/09 03:04:44;;;;;;;14.30;9.15;;;;;;;19.09;99.95;95137.67;1586710;88;21045;-50
2022/08/09 03:07:12;;;;;;;14.33;9.43;;;;;;;19.10;99.09;95142.00;1597325;89;21082;-50
2022/08/09 03:09:42;;;;;;;11.73;8.55;;;;;;;19.07;98.80;95138.19;1585895;89;21212;-50
2022/08/09 03:12:10;;;;;;;15.30;9.60;;;;;;;19.07;98.58;95143.77;1582627;88;21486;-51
2022/08/09 03:14:40;;;;;;;12.82;8.88;;;;;;;19.03;98.72;95146.63;1604458;89;21130;-48
2022/08/09 03:17:08;;;;;;;9.68;8.00;;;;;;;18.98;98.95;95144.55;1585997;89;21070;-49
2022/08/09 03:19:36;;;;;;;11.60;8.28;;;;;;;18.96;99.28;95142.25;1593827;87;21569;-50
2022/08/09 03:22:05;;;;;;;12.55;8.75;;;;;;;18.91;99.09;95138.00;1595175;87;21354;-49
2022/08/09 03:24:33;;;;;;;11.10;8.50;;;;;;;18.89;99.39;95138.51;1594159;89;21532;-49
2022/08/09 03:27:02;;;;;;;12.43;8.65;;;;;;;18.86;99.15;95134.53;1585346;89;21461;-49
2022/08/09 03:29:30;;;;;;;11.28;8.93;;;;;;;18.80;99.18;95137.90;1600425;87;21546;-49
2022/08/09 03:31:59;;;;;;;13.08;9.65;;;;;;;18.72;99.48;95131.98;1586721;89;21105;-49
2022/08/09 03:34:27;;;;;;;11.53;9.48;;;;;;;18.66;100.00;95132.53;1590738;89;21301;-49
2022/08/09 03:36:55;;;;;;;11.83;9.03;;;;;;;18.67;100.00;95129.88;1599630;89;21083;-49
2022/08/09 03:39:28;;;;;;;9.40;8.30;;;;;;;18.72;100.00;95131.98;1586414;87;21066;-49
2022/08/09 03:41:55;;;;;;;;;;;;;;;18.79;100.00;95130.16;1595316;89;21045;-49
2022/08/09 03:44:24;;;;;;;10.13;8.03;;;;;;;18.83;100.00;95130.70;1591028;89;20426;-49
2022/08/09 03:46:53;;;;;;;16.05;9.10;;;;;;;18.85;100.00;95133.75;1585050;88;21263;-49
2022/08/09 03:49:21;;;;;;;9.08;7.15;;;;;;;18.83;100.00;95134.12;1584634;88;21073;-49
2022/08/09 03:51:51;;;;;;;10.90;8.00;;;;;;;18.80;100.00;95130.29;1589212;88;20998;-49
2022/08/09 03:54:18;;;;;;;11.93;8.48;;;;;;;18.76;100.00;95134.54;1592585;89;21050;-49
2022/08/09 03:56:46;;;;;;;11.33;9.08;;;;;;;18.72;100.00;95129.20;1603478;89;21020;-49
2022/08/09 03:59:14;;;;;;;11.70;9.63;;;;;;;18.74;100.00;95131.48;1607799;89;21155;-49
2022/08/09 04:01:41;;;;;;;13.72;9.80;;;;;;;18.70;100.00;95130.32;1582711;89;21049;-49
2022/08/09 04:04:10;;;;;;;14.40;10.20;;;;;;;18.67;100.00;95125.70;1582122;89;20997;-49
2022/08/09 04:06:38;;;;;;;16.62;10.03;;;;;;;18.66;100.00;95125.56;1592795;88;21101;-50
2022/08/09 04:09:06;;;;;;;16.67;9.60;;;;;;;18.67;100.00;95122.16;1586916;89;21101;-51
2022/08/09 04:11:51;;;;;;;11.65;9.60;;;;;;;18.68;100.00;95124.44;1597803;88;21883;-50
2022/08/09 04:14:20;;;;;;;15.23;9.63;;;;;;;18.71;100.00;95123.48;1584033;89;21098;-49
2022/08/09 04:16:48;;;;;;;13.55;10.00;;;;;;;18.73;100.00;95126.55;1589996;87;21049;-50
2022/08/09 04:19:16;;;;;;;11.05;9.00;;;;;;;18.77;100.00;95125.70;1586627;88;21071;-49
2022/08/09 04:21:45;;;;;;;12.65;9.40;;;;;;;18.80;100.00;95123.31;1594158;89;21042;-49
2022/08/09 04:24:13;;;;;;;11.55;9.50;;;;;;;18.86;100.00;95124.13;1600918;89;21316;-49
2022/08/09 04:26:41;;;;;;;15.38;10.45;;;;;;;18.89;100.00;95123.17;1592066;89;21152;-49
2022/08/09 04:29:09;;;;;;;18.73;9.80;;;;;;;18.95;100.00;95123.20;1592022;88;21002;-49
2022/08/09 04:31:37;;;;;;;11.83;8.80;;;;;;;19.00;100.00;95118.34;1589429;89;21207;-50
2022/08/09 04:34:05;;;;;;;12.23;8.28;;;;;;;19.06;100.00;95118.53;1586213;89;21138;-52
2022/08/09 04:36:34;;;;;;;13.65;7.83;;;;;;;19.08;99.50;95127.16;1577418;88;21338;-49
2022/08/09 04:39:03;;;;;;;9.73;8.25;;;;;;;19.05;99.40;95129.52;1584357;88;21045;-49
2022/08/09 04:41:33;;;;;;;11.45;9.43;;;;;;;19.00;99.46;95126.05;1605040;89;21001;-50
2022/08/09 04:44:03;;;;;;;15.15;10.05;;;;;;;18.94;99.29;95125.25;1598371;89;21503;-52
2022/08/09 04:46:30;;;;;;;12.05;9.60;;;;;;;18.89;99.77;95128.75;1594566;89;20997;-53
2022/08/09 04:48:59;;;;;;;10.93;8.35;;;;;;;18.87;99.50;95121.48;1597892;87;21241;-50
2022/08/09 04:51:27;;;;;;;13.83;7.28;;;;;;;18.80;99.52;95128.89;1606915;88;21117;-50
2022/08/09 04:53:56;;;;;;;9.78;7.97;;;;;;;18.77;99.93;95128.48;1603939;89;21486;-51
2022/08/09 04:56:23;;;;;;;11.48;7.95;;;;;;;18.73;100.00;95129.34;1565530;90;21026;-50
2022/08/09 04:58:51;;;;;;;15.08;8.08;;;;;;;18.74;100.00;95124.52;1598492;89;20977;-49
2022/08/09 05:01:20;;;;;;;9.63;7.42;;;;;;;18.76;100.00;95122.77;1589920;89;21117;-48
2022/08/09 05:03:47;;;;;;;9.10;7.50;;;;;;;18.80;100.00;95128.89;1598714;89;21072;-51
2022/08/09 05:06:16;;;;;;;9.15;6.97;;;;;;;18.81;100.00;95130.42;1590182;89;21041;-49
2022/08/09 05:08:44;;;;;;;10.15;6.92;;;;;;;18.84;100.00;95127.30;1588612;89;21641;-50
2022/08/09 05:11:12;;;;;;;9.28;7.53;;;;;;;18.86;100.00;95131.75;1589562;89;21058;-51
2022/08/09 05:13:41;;;;;;;12.00;7.55;;;;;;;18.83;100.00;95136.27;1588468;89;21541;-51
2022/08/09 05:16:09;;;;;;;10.20;7.12;;;;;;;18.78;100.00;95137.59;1585537;88;20990;-49
2022/08/09 05:18:36;;;;;;;10.95;7.22;;;;;;;18.73;99.90;95134.91;1582112;88;21581;-50
2022/08/09 05:21:04;;;;;;;10.58;7.67;;;;;;;18.68;99.51;95139.02;1586789;89;21087;-52
2022/08/09 05:23:32;;;;;;;18.50;7.53;;;;;;;18.64;99.90;95130.12;1590782;89;21013;-50
2022/08/09 05:26:00;;;;;;;12.37;8.15;;;;;;;18.62;100.00;95130.59;1584171;89;21242;-50
2022/08/09 05:28:28;;;;;;;10.43;7.45;;;;;;;18.62;100.00;95135.42;1570626;90;21574;-50
2022/08/09 05:30:57;;;;;;;9.73;6.72;;;;;;;18.61;99.84;95140.22;1587525;89;21162;-51
2022/08/09 05:33:25;;;;;;;12.65;7.65;;;;;;;18.57;99.95;95143.84;1584385;88;21113;-52
2022/08/09 05:35:54;;;;;;;9.48;8.08;;;;;;;18.55;100.00;95145.58;1594251;89;21101;-53
2022/08/09 05:38:21;;;;;;;12.95;8.35;;;;;;;18.56;100.00;95138.75;1595043;89;21175;-51
2022/08/09 05:40:49;;;;;;;12.50;8.15;;;;;;;18.55;100.00;95138.00;1589066;89;20995;-50
2022/08/09 05:43:17;;;;;;;10.78;7.75;;;;;;;18.55;100.00;95141.40;1593377;87;21014;-53
2022/08/09 05:45:45;;;;;;;7.30;6.50;;;;;;;18.56;100.00;95147.89;1564130;88;21064;-52
2022/08/09 05:48:13;;;;;;;13.48;7.30;;;;;;;18.58;100.00;95152.34;1564428;88;21095;-51
2022/08/09 05:50:43;;;;;;;10.93;7.58;;;;;;;18.57;100.00;95150.81;1597743;88;22286;-50
2022/08/09 05:53:10;;;;;;;10.20;7.28;;;;;;;18.53;100.00;95155.84;1589835;88;21037;-54
2022/08/09 05:55:38;;;;;;;7.70;6.85;;;;;;;18.53;100.00;95156.45;1599394;88;21061;-53
2022/08/09 05:58:06;;;;;;;7.97;6.08;;;;;;;18.51;100.00;95154.78;1560009;90;21137;-55
2022/08/09 06:00:33;;;;;;;9.38;6.15;;;;;;;18.48;100.00;95157.91;1597709;88;21052;-52
2022/08/09 06:03:02;;;;;;;9.05;6.55;;;;;;;18.45;99.54;95158.89;1592731;88;21527;-54
2022/08/09 06:05:32;;;;;;;7.72;6.10;;;;;;;18.39;99.73;95155.28;1567355;89;21585;-56
2022/08/09 06:08:00;;;;;;;8.10;5.75;;;;;;;18.40;99.69;95154.02;1581481;88;21255;-52
2022/08/09 06:10:37;;;;;;;9.58;5.90;;;;;;;18.42;99.45;95159.87;1579989;88;21639;-51
2022/08/09 06:13:11;;;;;;;7.65;6.15;;;;;;;18.44;99.47;95154.57;1574289;89;21166;-52
2022/08/09 06:15:39;;;;;;;13.53;8.38;;;;;;;18.43;99.24;95153.05;1591331;87;21233;-52
2022/08/09 06:18:07;;;;;;;9.83;7.25;;;;;;;18.41;98.98;95158.95;1575565;88;21184;-55
2022/08/09 06:20:36;;;;;;;9.13;5.58;;;;;;;18.42;98.93;95161.27;1587523;88;21062;-54
2022/08/09 06:23:04;;;;;;;10.72;6.75;;;;;;;18.41;98.55;95151.98;1553502;87;21098;-55
2022/08/09 06:25:32;;;;;;;6.90;5.95;;;;;;;18.40;98.04;95152.63;1575797;89;21018;-53
2022/08/09 06:27:59;;;;;;;8.23;6.58;;;;;;;18.41;97.29;95153.37;1576511;89;21388;-56
2022/08/09 06:30:28;;;;;;;7.90;5.67;;;;;;;18.38;97.07;95150.18;1587174;89;21144;-54
2022/08/09 06:32:56;;;;;;;6.15;5.20;;;;;;;18.36;97.20;95152.69;1562114;89;21116;-51
2022/08/09 06:35:25;;;;;;;5.95;4.55;;;;;;;18.33;96.70;95148.88;1584685;89;21745;-53
2022/08/09 06:37:52;;;;;;;8.48;5.37;;;;;;;18.31;96.55;95150.61;1558497;89;21109;-51
2022/08/09 06:40:20;;;;;;;9.95;6.40;;;;;;;18.30;96.54;95156.80;1579811;88;21965;-58
2022/08/09 06:42:48;;;;;;;8.08;5.47;;;;;;;18.27;96.75;95156.38;1607024;88;21132;-51
2022/08/09 06:45:16;;;;;;;7.70;4.72;;;;;;;18.27;97.13;95153.59;1569152;87;21514;-53
2022/08/09 06:47:43;;;;;;;7.35;4.80;;;;;;;18.28;96.82;95157.91;1569446;89;21125;-57
2022/08/09 06:50:10;;;;;;;8.18;5.83;;;;;;;18.26;96.52;95154.81;1564453;89;21236;-51
2022/08/09 06:52:44;;;;;;;6.72;5.28;;;;;;;18.28;96.97;95162.73;1592309;88;21160;-51
2022/08/09 06:55:08;;;;;;;6.70;5.65;;;;;;;18.26;96.96;95149.25;1595298;87;22095;-54
2022/08/09 06:57:37;;;;;;;6.08;5.03;;;;;;;18.26;97.13;95161.78;1589355;87;21135;-50
2022/08/09 07:00:05;;;;;;;7.95;5.55;;;;;;;18.25;97.30;95165.82;1585163;88;21137;-54
2022/08/09 07:02:35;;;;;;;7.12;5.50;;;;;;;18.24;97.57;95163.54;1581146;87;21604;-54
2022/08/09 07:05:04;;;;;;;7.67;5.50;;;;;;;18.22;97.65;95163.23;1563971;89;21740;-51
2022/08/09 07:07:32;;;;;;;6.33;5.15;;;;;;;18.23;98.40;95172.51;1598621;88;20963;-58
2022/08/09 07:10:00;;;;;;;10.80;5.72;;;;;;;18.27;98.45;95177.27;1589548;88;20982;-54
2022/08/09 07:12:27;;;;;;;7.28;5.30;;;;;;;18.31;98.20;95179.22;1585680;89;21072;-51
2022/08/09 07:14:55;;;;;;;9.60;5.17;;;;;;;18.33;97.90;95174.56;1562195;89;21288;-54
2022/08/09 07:17:23;;;;;;;11.85;5.50;;;;;;;18.31;97.39;95173.64;1588925;88;21217;-53
2022/08/09 07:19:51;;;;;;;7.90;6.60;;;;;;;18.27;97.35;95176.52;1587168;88;21209;-50
2022/08/09 07:22:19;;;;;;;10.23;6.00;;;;;;;18.25;97.96;95175.57;1582450;87;21007;-51
2022/08/09 07:24:46;;;;;;;8.40;5.60;;;;;;;18.26;98.42;95177.10;1590726;88;21026;-54
2022/08/09 07:27:15;;;;;;;6.10;5.45;;;;;;;18.26;98.28;95177.75;1592660;87;21556;-52
2022/08/09 07:29:43;;;;;;;6.15;5.35;;;;;;;18.23;98.30;95175.30;1576116;88;21142;-52
2022/08/09 07:32:12;;;;;;;10.13;6.10;;;;;;;18.29;98.43;95183.12;1566115;89;21565;-51
2022/08/09 07:34:39;;;;;;;10.50;5.95;;;;;;;18.27;98.14;95180.05;1581734;88;21034;-55
2022/08/09 07:37:07;;;;;;;6.50;5.72;;;;;;;18.27;98.39;95184.23;1582039;89;21642;-54
2022/08/09 07:39:36;;;;;;;7.10;5.25;;;;;;;18.27;98.49;95181.45;1580253;89;21038;-51
2022/08/09 07:42:04;;;;;;;5.22;4.72;;;;;;;18.26;98.40;95188.24;1591517;89;21161;-54
2022/08/09 07:44:36;;;;;;;5.97;5.10;;;;;;;18.28;98.47;95194.13;1587761;89;21088;-53
2022/08/09 07:47:05;;;;;;;7.90;5.67;;;;;;;18.31;98.07;95193.14;1591320;87;21061;-49
2022/08/09 07:49:34;;;;;;;5.08;4.30;;;;;;;18.33;97.96;95193.45;1578450;88;21059;-52
2022/08/09 07:52:03;;;;;;;10.45;4.72;;;;;;;18.35;97.11;95195.73;1585477;87;21107;-50
2022/08/09 07:54:31;;;;;;;6.72;4.10;;;;;;;18.31;96.37;95201.50;1582879;88;21982;-53
2022/08/09 07:56:59;;;;;;;7.95;4.42;;;;;;;18.31;96.30;95201.50;1573131;89;21099;-54
2022/08/09 07:59:27;;;;;;;11.45;4.47;;;;;;;18.33;96.01;95207.38;1596899;88;21114;-52
2022/08/09 08:01:55;;;;;;;6.65;4.25;;;;;;;18.34;95.52;95202.56;1593438;88;21506;-53
2022/08/09 08:04:23;;;;;;;5.62;3.83;;;;;;;18.32;95.17;95208.61;1594405;88;21185;-52
2022/08/09 08:06:51;;;;;;;4.72;3.52;;;;;;;18.27;95.31;95206.52;1604554;88;21447;-51
2022/08/09 08:09:21;;;;;;;6.60;3.17;;;;;;;18.27;95.09;95209.30;1568643;89;21270;-50
2022/08/09 08:11:48;;;;;;;5.65;3.80;;;;;;;18.30;94.77;95205.55;1558422;89;21196;-52
2022/08/09 08:14:17;;;;;;;4.85;3.40;;;;;;;18.35;94.50;95208.27;1587808;88;21108;-54
2022/08/09 08:16:44;;;;;;;5.85;3.70;;;;;;;18.34;94.32;95214.48;1591805;88;21130;-54
2022/08/09 08:19:21;;;;;;;3.83;3.35;;;;;;;18.33;93.59;95211.56;1595058;87;22464;-55
2022/08/09 08:21:53;;;;;;;7.28;3.20;;;;;;;18.34;93.74;95212.31;1582990;88;21121;-53
2022/08/09 08:24:22;;;;;;;7.08;4.70;;;;;;;18.35;93.46;95215.23;1591032;88;21159;-55
2022/08/09 08:26:49;;;;;;;5.20;4.70;;;;;;;18.32;93.43;95219.00;1592082;88;21484;-51
2022/08/09 08:29:18;;;;;;;6.17;3.30;;;;;;;18.24;93.44;95226.97;1583620;88;21142;-53
2022/08/09 08:31:46;;;;;;;5.25;3.70;;;;;;;18.18;93.80;95224.59;1577822;88;21279;-55
2022/08/09 08:34:14;;;;;;;3.58;3.10;;;;;;;18.16;94.28;95220.14;1590667;88;21497;-51
2022/08/09 08:36:43;;;;;;;3.42;3.08;;;;;;;18.14;94.60;95226.18;1583510;89;21082;-57
2022/08/09 08:39:10;;;;;;;5.20;3.45;;;;;;;18.11;94.98;95227.77;1586790;89;21156;-55
2022/08/09 08:41:38;;;;;;;4.08;3.67;;;;;;;18.10;95.69;95226.23;1588770;89;21726;-51
2022/08/09 08:44:08;;;;;;;3.67;3.37;;;;;;;18.09;95.92;95222.70;1590861;88;21761;-55
2022/08/09 08:46:39;;;;;;;4.42;3.10;;;;;;;18.13;96.06;95229.58;1567300;89;21082;-56
2022/08/09 08:49:10;;;;;;;2.90;2.60;;;;;;;18.17;95.85;95220.28;1553376;88;21635;-55
2022/08/09 08:51:40;;;;;;;3.33;3.02;;;;;;;18.22;95.12;95218.94;1587819;88;21119;-55
2022/08/09 08:54:10;;;;;;;3.52;3.00;;;;;;;18.26;95.17;95225.85;1566321;89;21202;-51
2022/08/09 08:56:39;;;;;;;3.25;2.80;;;;;;;18.31;94.86;95224.43;1557312;90;21267;-53
2022/08/09 08:59:08;;;;;;;2.72;2.52;;;;;;;18.33;94.28;95223.32;1528120;92;21099;-53
2022/08/09 09:01:37;;;;;;;3.90;3.30;;;;;;;18.28;94.51;95224.77;1560064;90;21106;-51
2022/08/09 09:04:07;;;;;;;3.15;2.75;;;;;;;18.30;94.69;95230.62;1559150;89;21095;-53
2022/08/09 09:06:40;;;;;;;3.33;2.95;;;;;;;18.29;94.66;95222.13;1557278;89;21023;-52
2022/08/09 09:38:21;;;;;;;4.17;3.08;;;;;;;17.97;95.76;95228.59;1781680;78;26342;-54
2022/08/09 09:40:49;;;;;;;3.20;2.80;;;;;;;17.88;95.84;95232.25;1731686;80;21049;-55
2022/08/09 09:43:19;;;;;;;3.47;2.50;;;;;;;17.89;95.80;95231.00;1693315;82;21147;-55
2022/08/09 09:45:51;;;;;;;2.77;2.55;;;;;;;17.93;95.83;95234.34;1697940;83;21034;-54
2022/08/09 09:48:20;;;;;;;3.00;2.40;;;;;;;17.97;95.54;95235.55;1674873;84;21070;-55
2022/08/09 09:50:50;;;;;;;5.67;2.80;;;;;;;18.01;95.67;95236.86;1744137;80;21139;-54
2022/08/09 09:53:22;;;;;;;3.50;2.52;;;;;;;18.13;95.48;95241.97;1734106;80;21080;-54
2022/08/09 09:55:58;;;;;;;2.72;2.52;;;;;;;18.19;95.22;95240.20;1731195;81;21250;-54
2022/08/09 09:58:30;;;;;;;2.92;2.45;;;;;;;18.28;95.38;95244.27;1717010;80;21611;-55
2022/08/09 10:00:58;;;;;;;3.35;3.05;;;;;;;18.37;94.89;95241.38;1730220;81;21028;-53
2022/08/09 10:03:49;;;;;;;2.60;2.40;;;;;;;18.43;94.22;95240.06;1733969;80;21103;-55
2022/08/09 10:06:18;;;;;;;5.92;2.95;;;;;;;18.52;93.97;95246.27;1742485;80;21080;-55
2022/08/09 10:08:48;;;;;;;4.03;3.08;;;;;;;18.60;93.18;95243.81;1752039;80;21264;-54
2022/08/09 10:11:26;;;;;;;3.52;3.22;;;;;;;18.59;93.15;95245.84;1744349;80;21159;-59
2022/08/09 10:13:53;;;;;;;11.43;6.58;;;;;;;18.65;93.84;95239.71;1734211;80;21059;-56
2022/08/09 10:16:33;;;;;;;3.33;2.90;;;;;;;18.79;94.28;95244.46;1743776;80;21700;-56
2022/08/09 10:19:05;;;;;;;3.10;2.50;;;;;;;18.90;94.32;95243.22;1723495;80;22047;-59
2022/08/09 10:21:34;;;;;;;4.12;2.87;;;;;;;18.96;94.19;95239.85;1732331;80;21338;-57
2022/08/09 10:24:03;;;;;;;3.40;3.10;;;;;;;19.02;94.35;95241.31;1749197;80;21438;-58
2022/08/09 10:26:32;;;;;;;3.75;2.75;;;;;;;19.13;93.93;95246.39;1749551;80;21044;-57
2022/08/09 10:28:59;;;;;;;4.37;3.08;;;;;;;19.24;92.67;95243.77;1757853;79;21055;-53
2022/08/09 10:31:27;;;;;;;5.70;2.00;;;;;;;19.23;92.01;95242.20;1746987;80;21020;-56
2022/08/09 10:33:54;;;;;;;2.02;1.92;;;;;;;19.24;91.59;95245.16;1753402;80;21276;-56
2022/08/09 10:36:21;;;;;;;4.12;2.47;;;;;;;19.23;90.63;95243.59;1740993;80;21021;-57
2022/08/09 10:38:49;;;;;;;2.00;1.90;;;;;;;19.21;90.48;95229.37;1728414;81;21209;-57
2022/08/09 10:41:17;;;;;;;2.27;1.90;;;;;;;19.27;90.16;95226.66;1736712;81;21001;-55
2022/08/09 10:43:46;;;;;;;2.27;2.02;;;;;;;19.34;89.01;95226.23;1733533;81;21076;-59
2022/08/09 10:46:48;;;;;;;3.00;2.42;;;;;;;19.42;88.93;95233.68;1695774;81;21340;-58
2022/08/09 10:49:45;;;;;;;4.95;2.05;;;;;;;19.45;88.90;95228.50;1679039;81;21014;-57
2022/08/09 10:52:59;;;;;;;2.40;2.20;;;;;;;19.51;89.19;95229.31;1724413;81;21594;-53
2022/08/09 10:55:29;;;;;;;2.20;2.00;;;;;;;19.60;89.02;95224.94;1730001;81;21048;-54
2022/08/09 10:57:56;;;;;;;3.25;2.42;;;;;;;19.84;88.56;95231.63;1705573;81;21339;-58
2022/08/09 11:00:39;;;;;;;2.75;1.50;;;;;;;20.02;88.28;95228.50;1713308;81;21799;-55
2022/08/09 11:03:21;;;;;;;3.62;1.75;;;;;;;20.18;86.92;95213.27;1722257;81;21000;-54
2022/08/09 11:06:22;;;;;;;2.65;1.60;;;;;;;20.32;86.15;95218.70;1715568;81;22168;-54
2022/08/09 11:08:50;;;;;;;1.62;1.45;;;;;;;20.39;86.06;95225.86;1717263;81;21201;-55
2022/08/09 11:11:18;;;;;;;1.17;1.10;;;;;;;20.42;83.29;95228.42;1728829;80;21049;-51
2022/08/09 11:14:08;;;;;;;2.33;2.00;;;;;;;20.33;81.58;95227.21;1728669;81;21268;-57
2022/08/09 11:16:37;;;;;;;1.62;1.40;;;;;;;20.24;82.49;95219.66;1715936;81;21078;-59
2022/08/09 11:19:06;;;;;;;1.25;1.15;;;;;;;20.23;82.24;95220.92;1676315;83;21045;-59
2022/08/09 11:21:56;;;;;;;1.62;1.40;;;;;;;20.18;82.25;95224.45;1715100;81;21125;-58
2022/08/09 11:24:23;;;;;;;1.90;1.80;;;;;;;20.14;82.46;95230.26;1719483;81;22017;-52
2022/08/09 11:26:51;;;;;;;3.37;2.47;;;;;;;20.09;83.13;95228.06;1713782;81;21222;-56
2022/08/09 11:29:56;;;;;;;6.08;3.25;;;;;;;20.09;83.60;95232.26;1696147;81;21122;-59
2022/08/09 11:32:45;;;;;;;1.30;1.20;;;;;;;20.11;82.73;95236.71;1639667;84;21100;-53
2022/08/09 11:35:17;;;;;;;0.98;0.98;;;;;;;19.95;79.98;95227.54;1717776;80;21133;-54
2022/08/09 11:37:47;;;;;;;0.90;0.90;;;;;;;19.78;80.46;95227.39;1699034;81;21061;-53
2022/08/09 11:40:28;;;;;;;1.20;1.10;;;;;;;19.68;80.78;95226.05;1663797;84;21244;-54
2022/08/09 11:42:57;;;;;;;2.00;1.30;;;;;;;19.57;80.51;95219.60;1658068;84;21090;-51
2022/08/09 11:45:37;;;;;;;1.10;1.10;;;;;;;19.50;80.84;95222.20;1713909;81;21187;-52
2022/08/09 11:48:16;;;;;;;1.22;1.12;;;;;;;19.43;80.81;95218.47;1713713;81;21065;-52
2022/08/09 11:51:07;;;;;;;1.27;1.17;;;;;;;19.39;81.09;95212.31;1697290;81;21358;-54
2022/08/09 11:53:37;;;;;;;5.40;4.90;;;;;;;19.38;81.29;95219.80;1718343;80;21119;-57
2022/08/09 11:56:19;;;;;;;;;;;;;;;19.41;80.60;95221.60;1714575;81;21113;-57
2022/08/09 11:58:58;;;;;;;1.50;1.40;;;;;;;19.41;81.06;95225.14;1670160;83;20195;-59
2022/08/09 12:01:45;;;;;;;1.30;1.20;;;;;;;19.45;81.08;95225.72;1650035;84;21451;-60
2022/08/09 12:04:13;;;;;;;3.37;1.00;;;;;;;19.46;81.11;95213.91;1699254;82;21017;-59
2022/08/09 12:06:53;;;;;;;1.02;1.00;;;;;;;19.49;80.70;95213.69;1711673;81;21270;-56
2022/08/09 12:09:26;;;;;;;1.22;1.00;;;;;;;19.46;80.58;95212.51;1723688;80;21218;-53
2022/08/09 12:12:04;;;;;;;1.10;1.10;;;;;;;19.45;80.43;95220.13;1687595;81;21112;-56
2022/08/09 12:14:34;;;;;;;1.10;1.10;;;;;;;19.40;80.33;95219.42;1713122;81;21102;-54
2022/08/09 12:17:06;;;;;;;1.30;1.20;;;;;;;19.38;80.86;95214.97;1714939;81;21057;-54